Private Wetterstation Sandau
Wetterdaten: Samstag, 18.08.2012
Datum Zeit Temp. A. Feuchte A. Luftdruck Regen Wind Richtung Richtung Taupunkt Windchill
18.08.2012 00:01 17,3 C 75 % 1022,6 hPa 0,0 l/m 0,0 km/h (0 Bft) SO 135 12,8 C 17,3 C
18.08.2012 00:06 17,3 C 75 % 1022,6 hPa 0,0 l/m 0,0 km/h (0 Bft) O-SO 112 12,8 C 17,3 C
18.08.2012 00:11 17,1 C 75 % 1022,6 hPa 0,0 l/m 0,0 km/h (0 Bft) O-SO 112 12,6 C 17,1 C
18.08.2012 00:16 17,0 C 76 % 1022,6 hPa 0,0 l/m 0,0 km/h (0 Bft) O-SO 112 12,7 C 17,0 C
18.08.2012 00:21 16,9 C 76 % 1022,5 hPa 0,0 l/m 0,0 km/h (0 Bft) O-SO 112 12,6 C 16,9 C
18.08.2012 00:26 16,9 C 76 % 1022,6 hPa 0,0 l/m 0,0 km/h (0 Bft) SO 135 12,6 C 16,9 C
18.08.2012 00:31 16,8 C 76 % 1022,6 hPa 0,0 l/m 0,0 km/h (0 Bft) SO 135 12,5 C 16,8 C
18.08.2012 00:36 16,8 C 77 % 1022,6 hPa 0,0 l/m 0,0 km/h (0 Bft) SO 135 12,7 C 16,8 C
18.08.2012 00:41 16,7 C 76 % 1022,6 hPa 0,0 l/m 0,0 km/h (0 Bft) SO 135 12,4 C 16,7 C
18.08.2012 00:46 16,7 C 77 % 1022,6 hPa 0,0 l/m 0,0 km/h (0 Bft) O-SO 112 12,6 C 16,7 C
18.08.2012 00:51 16,6 C 77 % 1022,6 hPa 0,0 l/m 0,0 km/h (0 Bft) O-SO 112 12,5 C 16,6 C
18.08.2012 00:56 16,6 C 77 % 1022,6 hPa 0,0 l/m 0,0 km/h (0 Bft) O-SO 112 12,5 C 16,6 C
18.08.2012 01:01 16,5 C 77 % 1022,6 hPa 0,0 l/m 0,0 km/h (0 Bft) SO 135 12,5 C 16,5 C
18.08.2012 01:06 16,5 C 77 % 1022,5 hPa 0,0 l/m 0,0 km/h (0 Bft) SO 135 12,5 C 16,5 C
18.08.2012 01:11 16,4 C 77 % 1022,5 hPa 0,0 l/m 0,0 km/h (0 Bft) O-SO 112 12,4 C 16,4 C
18.08.2012 01:16 16,4 C 78 % 1022,5 hPa 0,0 l/m 0,0 km/h (0 Bft) O-SO 112 12,6 C 16,4 C
18.08.2012 01:21 16,4 C 78 % 1022,5 hPa 0,0 l/m 0,0 km/h (0 Bft) SO 135 12,6 C 16,4 C
18.08.2012 01:26 16,3 C 78 % 1022,5 hPa 0,0 l/m 0,0 km/h (0 Bft) O-SO 112 12,5 C 16,3 C
18.08.2012 01:31 16,3 C 78 % 1022,5 hPa 0,0 l/m 0,0 km/h (0 Bft) O-SO 112 12,5 C 16,3 C
18.08.2012 01:36 16,2 C 79 % 1022,4 hPa 0,0 l/m 0,0 km/h (0 Bft) O-SO 112 12,6 C 16,2 C
18.08.2012 01:41 16,1 C 79 % 1022,5 hPa 0,0 l/m 0,0 km/h (0 Bft) O-SO 112 12,5 C 16,1 C
18.08.2012 01:46 16,1 C 79 % 1022,4 hPa 0,0 l/m 0,0 km/h (0 Bft) O-SO 112 12,5 C 16,1 C
18.08.2012 01:51 15,9 C 80 % 1022,4 hPa 0,0 l/m 0,0 km/h (0 Bft) O-SO 112 12,5 C 15,9 C
18.08.2012 01:56 15,9 C 80 % 1022,4 hPa 0,0 l/m 0,0 km/h (0 Bft) O-SO 112 12,5 C 15,9 C
18.08.2012 02:01 15,8 C 80 % 1022,4 hPa 0,0 l/m 0,0 km/h (0 Bft) O-SO 112 12,4 C 15,8 C
18.08.2012 02:06 15,7 C 80 % 1022,3 hPa 0,0 l/m 0,0 km/h (0 Bft) SO 135 12,3 C 15,7 C
18.08.2012 02:11 15,6 C 80 % 1022,3 hPa 0,0 l/m 0,0 km/h (0 Bft) SO 135 12,2 C 15,6 C
18.08.2012 02:16 15,6 C 80 % 1022,2 hPa 0,0 l/m 0,0 km/h (0 Bft) SO 135 12,2 C 15,6 C
18.08.2012 02:21 15,6 C 80 % 1022,3 hPa 0,0 l/m 0,0 km/h (0 Bft) SO 135 12,2 C 15,6 C
18.08.2012 02:26 15,5 C 81 % 1022,3 hPa 0,0 l/m 0,0 km/h (0 Bft) O-SO 112 12,3 C 15,5 C
18.08.2012 02:31 15,5 C 81 % 1022,2 hPa 0,0 l/m 0,0 km/h (0 Bft) O-SO 112 12,3 C 15,5 C
18.08.2012 02:36 15,4 C 81 % 1022,3 hPa 0,0 l/m 0,0 km/h (0 Bft) O-SO 112 12,2 C 15,4 C
18.08.2012 02:41 15,4 C 81 % 1022,2 hPa 0,0 l/m 0,0 km/h (0 Bft) O-SO 112 12,2 C 15,4 C
18.08.2012 02:46 15,4 C 81 % 1022,3 hPa 0,0 l/m 0,0 km/h (0 Bft) O-SO 112 12,2 C 15,4 C
18.08.2012 02:51 15,3 C 81 % 1022,3 hPa 0,0 l/m 0,0 km/h (0 Bft) SO 135 12,1 C 15,3 C
18.08.2012 02:56 15,3 C 82 % 1022,4 hPa 0,0 l/m 0,0 km/h (0 Bft) O-SO 112 12,2 C 15,3 C
18.08.2012 03:01 15,3 C 82 % 1022,4 hPa 0,0 l/m 0,0 km/h (0 Bft) O-SO 112 12,2 C 15,3 C
18.08.2012 03:06 15,3 C 82 % 1022,4 hPa 0,0 l/m 0,0 km/h (0 Bft) SO 135 12,2 C 15,3 C
18.08.2012 03:11 15,2 C 82 % 1022,5 hPa 0,0 l/m 0,0 km/h (0 Bft) O-SO 112 12,1 C 15,2 C
18.08.2012 03:16 15,1 C 82 % 1022,5 hPa 0,0 l/m 0,0 km/h (0 Bft) SO 135 12,0 C 15,1 C
18.08.2012 03:21 15,1 C 82 % 1022,5 hPa 0,0 l/m 0,0 km/h (0 Bft) O-SO 112 12,0 C 15,1 C
18.08.2012 03:26 14,9 C 82 % 1022,5 hPa 0,0 l/m 0,0 km/h (0 Bft) O-SO 112 11,9 C 14,9 C
18.08.2012 03:31 14,9 C 82 % 1022,6 hPa 0,0 l/m 0,0 km/h (0 Bft) SO 135 11,9 C 14,9 C
18.08.2012 03:36 14,9 C 82 % 1022,6 hPa 0,0 l/m 0,0 km/h (0 Bft) O-SO 112 11,9 C 14,9 C
18.08.2012 03:41 14,9 C 83 % 1022,5 hPa 0,0 l/m 0,0 km/h (0 Bft) O-SO 112 12,0 C 14,9 C
18.08.2012 03:46 14,9 C 83 % 1022,5 hPa 0,0 l/m 0,0 km/h (0 Bft) SO 135 12,0 C 14,9 C
18.08.2012 03:51 14,9 C 83 % 1022,5 hPa 0,0 l/m 0,0 km/h (0 Bft) O-SO 112 12,0 C 14,9 C
18.08.2012 03:56 14,9 C 83 % 1022,5 hPa 0,0 l/m 0,0 km/h (0 Bft) O-SO 112 12,0 C 14,9 C
18.08.2012 04:01 14,9 C 83 % 1022,5 hPa 0,0 l/m 0,0 km/h (0 Bft) O 90 12,0 C 14,9 C
18.08.2012 04:06 14,9 C 83 % 1022,5 hPa 0,0 l/m 0,0 km/h (0 Bft) O-SO 112 12,0 C 14,9 C
18.08.2012 04:11 14,9 C 83 % 1022,5 hPa 0,0 l/m 0,0 km/h (0 Bft) O-SO 112 12,0 C 14,9 C
18.08.2012 04:16 14,9 C 83 % 1022,5 hPa 0,0 l/m 0,0 km/h (0 Bft) SO 135 12,0 C 14,9 C
18.08.2012 04:21 14,9 C 83 % 1022,5 hPa 0,0 l/m 0,0 km/h (0 Bft) O-SO 112 12,0 C 14,9 C
18.08.2012 04:26 14,8 C 83 % 1022,5 hPa 0,0 l/m 0,0 km/h (0 Bft) SO 135 11,9 C 14,8 C
18.08.2012 04:31 14,8 C 83 % 1022,5 hPa 0,0 l/m 0,0 km/h (0 Bft) SO 135 11,9 C 14,8 C
18.08.2012 04:36 14,8 C 83 % 1022,5 hPa 0,0 l/m 0,0 km/h (0 Bft) O-SO 112 11,9 C 14,8 C
18.08.2012 04:41 14,7 C 83 % 1022,5 hPa 0,0 l/m 0,0 km/h (0 Bft) O-SO 112 11,8 C 14,7 C
18.08.2012 04:46 14,6 C 83 % 1022,3 hPa 0,0 l/m 0,0 km/h (0 Bft) SO 135 11,7 C 14,6 C
18.08.2012 04:51 14,6 C 84 % 1022,4 hPa 0,0 l/m 0,0 km/h (0 Bft) SO 135 11,9 C 14,6 C
18.08.2012 04:56 14,5 C 84 % 1022,4 hPa 0,0 l/m 0,0 km/h (0 Bft) SO 135 11,8 C 14,5 C
18.08.2012 05:01 14,5 C 84 % 1022,3 hPa 0,0 l/m 0,0 km/h (0 Bft) S-SO 157 11,8 C 14,5 C
18.08.2012 05:06 14,4 C 84 % 1022,2 hPa 0,0 l/m 0,0 km/h (0 Bft) O-SO 112 11,7 C 14,4 C
18.08.2012 05:11 14,4 C 84 % 1022,3 hPa 0,0 l/m 0,0 km/h (0 Bft) SO 135 11,7 C 14,4 C
18.08.2012 05:16 14,4 C 84 % 1022,4 hPa 0,0 l/m 0,0 km/h (0 Bft) SO 135 11,7 C 14,4 C
18.08.2012 05:21 14,4 C 84 % 1022,3 hPa 0,0 l/m 0,0 km/h (0 Bft) SO 135 11,7 C 14,4 C
18.08.2012 05:26 14,3 C 84 % 1022,2 hPa 0,0 l/m 0,0 km/h (0 Bft) SO 135 11,6 C 14,3 C
18.08.2012 05:31 14,3 C 84 % 1022,2 hPa 0,0 l/m 0,0 km/h (0 Bft) O-SO 112 11,6 C 14,3 C
18.08.2012 05:36 14,3 C 84 % 1022,4 hPa 0,0 l/m 0,0 km/h (0 Bft) SO 135 11,6 C 14,3 C
18.08.2012 05:41 14,2 C 85 % 1022,2 hPa 0,0 l/m 0,0 km/h (0 Bft) SO 135 11,7 C 14,2 C
18.08.2012 05:46 14,2 C 85 % 1022,3 hPa 0,0 l/m 0,0 km/h (0 Bft) O-SO 112 11,7 C 14,2 C
18.08.2012 05:51 14,1 C 85 % 1022,3 hPa 0,0 l/m 0,0 km/h (0 Bft) O-SO 112 11,6 C 14,1 C
18.08.2012 05:56 14,1 C 85 % 1022,5 hPa 0,0 l/m 0,0 km/h (0 Bft) SO 135 11,6 C 14,1 C
18.08.2012 06:01 14,1 C 85 % 1022,4 hPa 0,0 l/m 0,0 km/h (0 Bft) O-SO 112 11,6 C 14,1 C
18.08.2012 06:06 14,1 C 85 % 1022,5 hPa 0,0 l/m 0,0 km/h (0 Bft) SO 135 11,6 C 14,1 C
18.08.2012 06:11 13,9 C 85 % 1022,5 hPa 0,0 l/m 0,0 km/h (0 Bft) SO 135 11,4 C 13,9 C
18.08.2012 06:16 13,9 C 85 % 1022,5 hPa 0,0 l/m 0,0 km/h (0 Bft) SO 135 11,4 C 13,9 C
18.08.2012 06:21 13,9 C 85 % 1022,4 hPa 0,0 l/m 0,0 km/h (0 Bft) SO 135 11,4 C 13,9 C
18.08.2012 06:26 14,1 C 85 % 1022,5 hPa 0,0 l/m 3,2 km/h (1 Bft) SO 135 11,6 C 14,1 C
18.08.2012 06:31 14,1 C 85 % 1022,5 hPa 0,0 l/m 2,5 km/h (1 Bft) O-SO 112 11,6 C 14,1 C
18.08.2012 06:36 14,1 C 86 % 1022,4 hPa 0,0 l/m 2,2 km/h (1 Bft) O-SO 112 11,8 C 14,1 C
18.08.2012 06:41 14,1 C 86 % 1022,3 hPa 0,0 l/m 0,0 km/h (0 Bft) O-SO 112 11,8 C 14,1 C
18.08.2012 06:46 14,2 C 86 % 1022,5 hPa 0,0 l/m 0,0 km/h (0 Bft) O-SO 112 11,9 C 14,2 C
18.08.2012 06:51 14,7 C 85 % 1022,5 hPa 0,0 l/m 3,6 km/h (1 Bft) O-SO 112 12,2 C 14,7 C
18.08.2012 06:56 14,9 C 84 % 1022,7 hPa 0,0 l/m 0,0 km/h (0 Bft) O-SO 112 12,2 C 14,9 C
18.08.2012 07:01 15,4 C 84 % 1022,9 hPa 0,0 l/m 0,0 km/h (0 Bft) O-SO 112 12,7 C 15,4 C
18.08.2012 07:06 15,9 C 82 % 1022,7 hPa 0,0 l/m 3,6 km/h (1 Bft) O 90 12,8 C 15,9 C
18.08.2012 07:11 16,1 C 81 % 1022,9 hPa 0,0 l/m 4,3 km/h (1 Bft) O 90 12,8 C 16,1 C
18.08.2012 07:16 16,3 C 80 % 1022,8 hPa 0,0 l/m 4,0 km/h (1 Bft) O 90 12,8 C 16,3 C
18.08.2012 07:21 16,5 C 80 % 1022,9 hPa 0,0 l/m 1,4 km/h (1 Bft) O-SO 112 13,0 C 16,5 C
18.08.2012 07:26 16,5 C 79 % 1022,6 hPa 0,0 l/m 5,0 km/h (1 Bft) SO 135 12,8 C 16,5 C
18.08.2012 07:31 16,5 C 79 % 1022,7 hPa 0,0 l/m 4,7 km/h (1 Bft) SO 135 12,8 C 16,5 C
18.08.2012 07:36 16,7 C 79 % 1022,7 hPa 0,0 l/m 5,0 km/h (1 Bft) SO 135 13,0 C 16,7 C
18.08.2012 07:41 16,9 C 79 % 1022,7 hPa 0,0 l/m 3,2 km/h (1 Bft) SO 135 13,2 C 16,9 C
18.08.2012 07:46 17,1 C 79 % 1022,8 hPa 0,0 l/m 1,4 km/h (1 Bft) O-SO 112 13,4 C 17,1 C
18.08.2012 07:51 17,3 C 78 % 1022,8 hPa 0,0 l/m 4,0 km/h (1 Bft) SO 135 13,4 C 17,3 C
18.08.2012 07:56 17,4 C 78 % 1022,8 hPa 0,0 l/m 1,4 km/h (1 Bft) O 90 13,5 C 17,4 C
18.08.2012 08:01 17,6 C 78 % 1022,9 hPa 0,0 l/m 2,9 km/h (1 Bft) O-SO 112 13,7 C 17,6 C
18.08.2012 08:06 17,9 C 77 % 1022,8 hPa 0,0 l/m 2,5 km/h (1 Bft) O-SO 112 13,8 C 17,9 C
18.08.2012 08:11 18,1 C 76 % 1022,8 hPa 0,0 l/m 1,8 km/h (1 Bft) SO 135 13,8 C 18,1 C
18.08.2012 08:16 18,2 C 76 % 1022,8 hPa 0,0 l/m 4,0 km/h (1 Bft) O 90 13,9 C 18,2 C
18.08.2012 08:21 18,3 C 76 % 1022,8 hPa 0,0 l/m 0,0 km/h (0 Bft) SO 135 14,0 C 18,3 C
18.08.2012 08:26 18,6 C 76 % 1022,8 hPa 0,0 l/m 1,8 km/h (1 Bft) O 90 14,3 C 18,6 C
18.08.2012 08:31 19,0 C 75 % 1022,8 hPa 0,0 l/m 1,1 km/h (1 Bft) SO 135 14,5 C 19,0 C
18.08.2012 08:36 19,3 C 74 % 1023,0 hPa 0,0 l/m 0,0 km/h (0 Bft) SO 135 14,5 C 19,3 C
18.08.2012 08:41 19,4 C 74 % 1022,9 hPa 0,0 l/m 0,0 km/h (0 Bft) O-SO 112 14,6 C 19,4 C
18.08.2012 08:46 19,6 C 73 % 1023,0 hPa 0,0 l/m 1,4 km/h (1 Bft) SO 135 14,6 C 19,6 C
18.08.2012 08:51 19,9 C 73 % 1022,9 hPa 0,0 l/m 1,8 km/h (1 Bft) SO 135 14,9 C 19,9 C
18.08.2012 08:56 20,3 C 72 % 1022,9 hPa 0,0 l/m 0,0 km/h (0 Bft) S 180 15,1 C 20,3 C
18.08.2012 09:01 20,6 C 70 % 1022,9 hPa 0,0 l/m 3,2 km/h (1 Bft) S-SO 157 14,9 C 20,6 C
18.08.2012 09:06 20,8 C 69 % 1023,0 hPa 0,0 l/m 4,0 km/h (1 Bft) S-SO 157 14,9 C 20,8 C
18.08.2012 09:11 20,8 C 68 % 1023,1 hPa 0,0 l/m 1,8 km/h (1 Bft) O-SO 112 14,7 C 20,8 C
18.08.2012 09:16 20,9 C 67 % 1023,1 hPa 0,0 l/m 0,0 km/h (0 Bft) S-SW 202 14,5 C 20,9 C
18.08.2012 09:21 21,3 C 67 % 1023,0 hPa 0,0 l/m 6,1 km/h (2 Bft) S-SO 157 14,9 C 21,3 C
18.08.2012 09:26 21,6 C 67 % 1023,0 hPa 0,0 l/m 3,6 km/h (1 Bft) SO 135 15,2 C 21,6 C
18.08.2012 09:31 21,9 C 65 % 1022,9 hPa 0,0 l/m 0,0 km/h (0 Bft) S-SO 157 15,0 C 21,9 C
18.08.2012 09:36 22,1 C 64 % 1022,8 hPa 0,0 l/m 5,0 km/h (1 Bft) S-SW 202 15,0 C 22,1 C
18.08.2012 09:41 22,4 C 63 % 1022,9 hPa 0,0 l/m 4,0 km/h (1 Bft) S-SO 157 15,0 C 22,4 C
18.08.2012 09:46 22,8 C 62 % 1022,9 hPa 0,0 l/m 6,8 km/h (2 Bft) SW 225 15,1 C 22,8 C
18.08.2012 09:51 23,1 C 61 % 1022,9 hPa 0,0 l/m 7,6 km/h (2 Bft) S 180 15,2 C 23,1 C
18.08.2012 09:56 23,2 C 60 % 1023,0 hPa 0,0 l/m 8,6 km/h (2 Bft) SW 225 15,0 C 23,2 C
18.08.2012 10:01 23,4 C 60 % 1022,9 hPa 0,0 l/m 4,0 km/h (1 Bft) S-SO 157 15,2 C 23,4 C
18.08.2012 10:06 23,5 C 59 % 1023,0 hPa 0,0 l/m 4,0 km/h (1 Bft) SO 135 15,0 C 23,5 C
18.08.2012 10:11 23,8 C 58 % 1023,1 hPa 0,0 l/m 4,0 km/h (1 Bft) S 180 15,0 C 23,8 C
18.08.2012 10:16 23,9 C 58 % 1023,1 hPa 0,0 l/m 5,0 km/h (1 Bft) SO 135 15,1 C 23,9 C
18.08.2012 10:21 24,1 C 57 % 1023,1 hPa 0,0 l/m 0,0 km/h (0 Bft) O 90 15,0 C 24,1 C
18.08.2012 10:26 24,3 C 57 % 1023,0 hPa 0,0 l/m 4,7 km/h (1 Bft) S-SO 157 15,2 C 24,3 C
18.08.2012 10:31 24,5 C 56 % 1023,0 hPa 0,0 l/m 7,2 km/h (2 Bft) S-SW 202 15,1 C 24,5 C
18.08.2012 10:36 24,6 C 56 % 1023,0 hPa 0,0 l/m 5,4 km/h (1 Bft) S-SO 157 15,2 C 24,6 C
18.08.2012 10:41 24,8 C 55 % 1023,0 hPa 0,0 l/m 5,0 km/h (1 Bft) S 180 15,1 C 24,8 C
18.08.2012 10:46 24,9 C 54 % 1022,9 hPa 0,0 l/m 10,1 km/h (2 Bft) S-SW 202 14,9 C 24,9 C
18.08.2012 10:51 25,1 C 53 % 1022,9 hPa 0,0 l/m 10,4 km/h (2 Bft) SW 225 14,8 C 25,1 C
18.08.2012 10:56 25,3 C 52 % 1022,7 hPa 0,0 l/m 4,7 km/h (1 Bft) SW 225 14,7 C 25,3 C
18.08.2012 11:01 25,4 C 51 % 1023,0 hPa 0,0 l/m 5,4 km/h (1 Bft) S-SW 202 14,5 C 25,4 C
18.08.2012 11:06 25,6 C 51 % 1023,1 hPa 0,0 l/m 6,1 km/h (2 Bft) S 180 14,7 C 25,6 C
18.08.2012 11:11 25,9 C 51 % 1023,0 hPa 0,0 l/m 2,2 km/h (1 Bft) S-SW 202 15,0 C 25,9 C
18.08.2012 11:16 26,1 C 50 % 1022,9 hPa 0,0 l/m 6,1 km/h (2 Bft) W 270 14,8 C 26,1 C
18.08.2012 11:21 26,2 C 49 % 1023,0 hPa 0,0 l/m 6,1 km/h (2 Bft) S-SW 202 14,6 C 26,2 C
18.08.2012 11:26 26,3 C 49 % 1022,8 hPa 0,0 l/m 10,8 km/h (2 Bft) S-SO 157 14,7 C 26,3 C
18.08.2012 11:31 26,4 C 49 % 1022,9 hPa 0,0 l/m 0,0 km/h (0 Bft) S 180 14,8 C 26,4 C
18.08.2012 11:36 26,5 C 48 % 1022,7 hPa 0,0 l/m 3,6 km/h (1 Bft) S-SO 157 14,6 C 26,5 C
18.08.2012 11:41 26,7 C 47 % 1022,7 hPa 0,0 l/m 3,6 km/h (1 Bft) S-SO 157 14,4 C 26,7 C
18.08.2012 11:46 26,8 C 48 % 1022,8 hPa 0,0 l/m 9,7 km/h (2 Bft) S-SO 157 14,9 C 26,8 C
18.08.2012 11:51 27,1 C 47 % 1022,8 hPa 0,0 l/m 7,9 km/h (2 Bft) S 180 14,8 C 27,1 C
18.08.2012 11:56 27,2 C 46 % 1022,9 hPa 0,0 l/m 2,9 km/h (1 Bft) S-SW 202 14,6 C 27,2 C
18.08.2012 12:01 27,3 C 46 % 1022,9 hPa 0,0 l/m 11,2 km/h (2 Bft) S-SW 202 14,6 C 27,3 C
18.08.2012 12:06 27,4 C 45 % 1022,7 hPa 0,0 l/m 12,2 km/h (2 Bft) SW 225 14,4 C 27,4 C
18.08.2012 12:11 27,6 C 45 % 1022,6 hPa 0,0 l/m 9,4 km/h (2 Bft) S-SW 202 14,6 C 27,6 C
18.08.2012 12:16 27,6 C 44 % 1022,6 hPa 0,0 l/m 8,3 km/h (2 Bft) S-SO 157 14,2 C 27,6 C
18.08.2012 12:21 27,8 C 44 % 1022,6 hPa 0,0 l/m 5,0 km/h (1 Bft) S-SO 157 14,4 C 27,8 C
18.08.2012 12:26 27,9 C 44 % 1022,6 hPa 0,0 l/m 15,5 km/h (3 Bft) S-SW 202 14,5 C 27,9 C
18.08.2012 12:31 28,1 C 44 % 1022,6 hPa 0,0 l/m 6,8 km/h (2 Bft) S 180 14,7 C 28,1 C
18.08.2012 12:36 28,1 C 43 % 1022,5 hPa 0,0 l/m 7,6 km/h (2 Bft) S-SW 202 14,3 C 28,1 C
18.08.2012 12:41 28,3 C 43 % 1022,5 hPa 0,0 l/m 4,7 km/h (1 Bft) S-SO 157 14,5 C 28,3 C
18.08.2012 12:46 28,3 C 43 % 1022,6 hPa 0,0 l/m 5,4 km/h (1 Bft) SW 225 14,5 C 28,3 C
18.08.2012 12:51 28,4 C 42 % 1022,6 hPa 0,0 l/m 4,3 km/h (1 Bft) W 270 14,2 C 28,4 C
18.08.2012 12:56 28,6 C 41 % 1022,4 hPa 0,0 l/m 5,8 km/h (2 Bft) SW 225 14,0 C 28,6 C
18.08.2012 13:01 28,6 C 41 % 1022,6 hPa 0,0 l/m 0,0 km/h (0 Bft) W-SW 247 14,0 C 28,6 C
18.08.2012 13:06 28,7 C 41 % 1022,6 hPa 0,0 l/m 4,0 km/h (1 Bft) S-SO 157 14,1 C 28,7 C
18.08.2012 13:11 28,8 C 42 % 1022,5 hPa 0,0 l/m 7,6 km/h (2 Bft) S-SW 202 14,6 C 28,8 C
18.08.2012 13:16 28,9 C 41 % 1022,4 hPa 0,0 l/m 5,8 km/h (2 Bft) S-SO 157 14,3 C 28,9 C
18.08.2012 13:21 29,1 C 41 % 1022,4 hPa 0,0 l/m 18,7 km/h (3 Bft) S-SW 202 14,5 C 29,1 C
18.08.2012 13:26 29,0 C 40 % 1022,4 hPa 0,0 l/m 4,7 km/h (1 Bft) S-SW 202 14,0 C 29,0 C
18.08.2012 13:31 29,1 C 40 % 1022,3 hPa 0,0 l/m 7,6 km/h (2 Bft) S-SW 202 14,1 C 29,1 C
18.08.2012 13:36 29,2 C 40 % 1022,4 hPa 0,0 l/m 5,4 km/h (1 Bft) S-SO 157 14,2 C 29,2 C
18.08.2012 13:41 29,3 C 40 % 1022,2 hPa 0,0 l/m 15,1 km/h (3 Bft) SW 225 14,3 C 29,3 C
18.08.2012 13:46 29,3 C 40 % 1022,2 hPa 0,0 l/m 10,1 km/h (2 Bft) S-SW 202 14,3 C 29,3 C
18.08.2012 13:51 29,3 C 40 % 1022,2 hPa 0,0 l/m 8,6 km/h (2 Bft) S-SW 202 14,3 C 29,3 C
18.08.2012 13:56 29,4 C 40 % 1022,2 hPa 0,0 l/m 5,0 km/h (1 Bft) S-SW 202 14,4 C 29,4 C
18.08.2012 14:01 29,6 C 39 % 1022,2 hPa 0,0 l/m 13,7 km/h (3 Bft) W-SW 247 14,2 C 29,6 C
18.08.2012 14:06 29,7 C 39 % 1022,2 hPa 0,0 l/m 9,7 km/h (2 Bft) S-SW 202 14,2 C 29,7 C
18.08.2012 14:11 29,8 C 39 % 1022,1 hPa 0,0 l/m 8,6 km/h (2 Bft) S 180 14,3 C 29,8 C
18.08.2012 14:16 29,9 C 38 % 1022,1 hPa 0,0 l/m 7,2 km/h (2 Bft) W-SW 247 14,0 C 29,9 C
18.08.2012 14:21 30,1 C 38 % 1022,0 hPa 0,0 l/m 2,2 km/h (1 Bft) SW 225 14,2 C 30,1 C
18.08.2012 14:26 30,3 C 37 % 1021,9 hPa 0,0 l/m 6,5 km/h (2 Bft) W 270 14,0 C 30,3 C
18.08.2012 14:31 30,3 C 37 % 1022,1 hPa 0,0 l/m 2,5 km/h (1 Bft) W 270 14,0 C 30,3 C
18.08.2012 14:36 30,3 C 37 % 1022,0 hPa 0,0 l/m 5,8 km/h (2 Bft) S-SO 157 14,0 C 30,3 C
18.08.2012 14:41 30,5 C 37 % 1022,1 hPa 0,0 l/m 5,0 km/h (1 Bft) S-SO 157 14,1 C 30,5 C
18.08.2012 14:46 30,6 C 36 % 1021,8 hPa 0,0 l/m 3,2 km/h (1 Bft) SW 225 13,8 C 30,6 C
18.08.2012 14:51 30,7 C 37 % 1021,9 hPa 0,0 l/m 5,4 km/h (1 Bft) S-SW 202 14,3 C 30,7 C
18.08.2012 14:56 30,9 C 36 % 1021,8 hPa 0,0 l/m 7,6 km/h (2 Bft) SW 225 14,1 C 30,9 C
18.08.2012 15:01 31,0 C 36 % 1021,8 hPa 0,0 l/m 6,1 km/h (2 Bft) S 180 14,2 C 31,0 C
18.08.2012 15:06 31,0 C 36 % 1021,8 hPa 0,0 l/m 6,1 km/h (2 Bft) SW 225 14,2 C 31,0 C
18.08.2012 15:11 31,1 C 36 % 1021,7 hPa 0,0 l/m 2,9 km/h (1 Bft) S 180 14,2 C 31,1 C
18.08.2012 15:16 31,2 C 36 % 1021,7 hPa 0,0 l/m 5,4 km/h (1 Bft) W-SW 247 14,3 C 31,2 C
18.08.2012 15:21 31,1 C 36 % 1021,5 hPa 0,0 l/m 0,0 km/h (0 Bft) S-SW 202 14,2 C 31,1 C
18.08.2012 15:26 30,9 C 36 % 1021,6 hPa 0,0 l/m 7,9 km/h (2 Bft) S-SW 202 14,1 C 30,9 C
18.08.2012 15:31 30,9 C 36 % 1021,6 hPa 0,0 l/m 3,6 km/h (1 Bft) SO 135 14,1 C 30,9 C
18.08.2012 15:36 30,6 C 36 % 1021,5 hPa 0,0 l/m 3,2 km/h (1 Bft) O-NO 67 13,8 C 30,6 C
18.08.2012 15:41 30,6 C 37 % 1021,6 hPa 0,0 l/m 8,3 km/h (2 Bft) S-SW 202 14,2 C 30,6 C
18.08.2012 15:46 30,6 C 36 % 1021,5 hPa 0,0 l/m 2,9 km/h (1 Bft) SW 225 13,8 C 30,6 C
18.08.2012 15:51 30,6 C 36 % 1021,5 hPa 0,0 l/m 4,0 km/h (1 Bft) S-SO 157 13,8 C 30,6 C
18.08.2012 15:56 30,3 C 36 % 1021,5 hPa 0,0 l/m 1,8 km/h (1 Bft) S-SO 157 13,5 C 30,3 C
18.08.2012 16:01 30,1 C 37 % 1021,5 hPa 0,0 l/m 8,6 km/h (2 Bft) O-NO 67 13,8 C 30,1 C
18.08.2012 16:06 29,8 C 37 % 1021,4 hPa 0,0 l/m 10,1 km/h (2 Bft) SO 135 13,5 C 29,8 C
18.08.2012 16:11 29,8 C 38 % 1021,4 hPa 0,0 l/m 4,0 km/h (1 Bft) S 180 13,9 C 29,8 C
18.08.2012 16:16 30,1 C 37 % 1021,3 hPa 0,0 l/m 3,6 km/h (1 Bft) O-SO 112 13,8 C 30,1 C
18.08.2012 16:21 30,1 C 36 % 1021,5 hPa 0,0 l/m 4,0 km/h (1 Bft) S 180 13,4 C 30,1 C
18.08.2012 16:26 29,9 C 36 % 1021,4 hPa 0,0 l/m 3,6 km/h (1 Bft) O-NO 67 13,2 C 29,9 C
18.08.2012 16:31 29,6 C 36 % 1021,3 hPa 0,0 l/m 3,6 km/h (1 Bft) S-SO 157 12,9 C 29,6 C
18.08.2012 16:36 29,5 C 37 % 1021,5 hPa 0,0 l/m 2,2 km/h (1 Bft) SW 225 13,3 C 29,5 C
18.08.2012 16:41 29,6 C 37 % 1021,3 hPa 0,0 l/m 1,8 km/h (1 Bft) S 180 13,3 C 29,6 C
18.08.2012 16:46 29,8 C 36 % 1021,4 hPa 0,0 l/m 13,7 km/h (3 Bft) S-SO 157 13,1 C 29,8 C
18.08.2012 16:51 29,6 C 36 % 1021,2 hPa 0,0 l/m 14,4 km/h (3 Bft) SO 135 12,9 C 29,6 C
18.08.2012 16:56 29,6 C 37 % 1021,4 hPa 0,0 l/m 4,0 km/h (1 Bft) S-SO 157 13,3 C 29,6 C
18.08.2012 17:01 29,8 C 37 % 1021,3 hPa 0,0 l/m 5,8 km/h (2 Bft) O-SO 112 13,5 C 29,8 C
18.08.2012 17:06 30,0 C 36 % 1021,2 hPa 0,0 l/m 10,8 km/h (2 Bft) S 180 13,3 C 30,0 C
18.08.2012 17:11 29,9 C 36 % 1021,3 hPa 0,0 l/m 6,8 km/h (2 Bft) SO 135 13,2 C 29,9 C
18.08.2012 17:16 29,5 C 36 % 1021,2 hPa 0,0 l/m 2,9 km/h (1 Bft) SO 135 12,8 C 29,5 C
18.08.2012 17:21 29,3 C 37 % 1021,4 hPa 0,0 l/m 5,0 km/h (1 Bft) SO 135 13,1 C 29,3 C
18.08.2012 17:26 29,1 C 38 % 1021,2 hPa 0,0 l/m 14,4 km/h (3 Bft) S-SO 157 13,3 C 29,1 C
18.08.2012 17:31 29,0 C 37 % 1021,2 hPa 0,0 l/m 7,9 km/h (2 Bft) SO 135 12,8 C 29,0 C
18.08.2012 17:36 28,9 C 38 % 1021,4 hPa 0,0 l/m 7,6 km/h (2 Bft) O 90 13,1 C 28,9 C
18.08.2012 17:41 28,9 C 38 % 1021,2 hPa 0,0 l/m 6,5 km/h (2 Bft) SO 135 13,1 C 28,9 C
18.08.2012 17:46 28,9 C 39 % 1021,0 hPa 0,0 l/m 1,8 km/h (1 Bft) S-SO 157 13,5 C 28,9 C
18.08.2012 17:51 28,8 C 39 % 1021,0 hPa 0,0 l/m 7,6 km/h (2 Bft) SO 135 13,4 C 28,8 C
18.08.2012 17:56 28,8 C 39 % 1021,0 hPa 0,0 l/m 6,1 km/h (2 Bft) SO 135 13,4 C 28,8 C
18.08.2012 18:01 28,6 C 38 % 1021,1 hPa 0,0 l/m 9,7 km/h (2 Bft) S-SO 157 12,9 C 28,6 C
18.08.2012 18:06 28,5 C 39 % 1021,1 hPa 0,0 l/m 4,0 km/h (1 Bft) SO 135 13,2 C 28,5 C
18.08.2012 18:11 28,3 C 39 % 1021,2 hPa 0,0 l/m 6,5 km/h (2 Bft) O-SO 112 13,0 C 28,3 C
18.08.2012 18:16 28,1 C 40 % 1021,0 hPa 0,0 l/m 11,5 km/h (2 Bft) SO 135 13,2 C 28,1 C
18.08.2012 18:21 27,9 C 40 % 1021,0 hPa 0,0 l/m 4,0 km/h (1 Bft) SO 135 13,0 C 27,9 C
18.08.2012 18:26 27,8 C 41 % 1021,0 hPa 0,0 l/m 8,3 km/h (2 Bft) SO 135 13,3 C 27,8 C
18.08.2012 18:31 27,6 C 41 % 1021,1 hPa 0,0 l/m 9,7 km/h (2 Bft) SO 135 13,1 C 27,6 C
18.08.2012 18:36 27,5 C 42 % 1021,0 hPa 0,0 l/m 6,5 km/h (2 Bft) O-NO 67 13,4 C 27,5 C
18.08.2012 18:41 27,3 C 42 % 1021,0 hPa 0,0 l/m 7,2 km/h (2 Bft) S-SO 157 13,2 C 27,3 C
18.08.2012 18:46 27,1 C 43 % 1021,1 hPa 0,0 l/m 0,0 km/h (0 Bft) SO 135 13,4 C 27,1 C
18.08.2012 18:51 27,1 C 43 % 1021,0 hPa 0,0 l/m 5,8 km/h (2 Bft) O-SO 112 13,4 C 27,1 C
18.08.2012 18:56 26,9 C 43 % 1020,8 hPa 0,0 l/m 6,5 km/h (2 Bft) S-SO 157 13,2 C 26,9 C
18.08.2012 19:01 26,9 C 45 % 1020,9 hPa 0,0 l/m 2,5 km/h (1 Bft) S-SO 157 13,9 C 26,9 C
18.08.2012 19:06 26,8 C 45 % 1020,9 hPa 0,0 l/m 5,8 km/h (2 Bft) SO 135 13,9 C 26,8 C
18.08.2012 19:11 26,6 C 44 % 1021,0 hPa 0,0 l/m 5,0 km/h (1 Bft) S-SO 157 13,3 C 26,6 C
18.08.2012 19:16 26,5 C 45 % 1020,8 hPa 0,0 l/m 11,2 km/h (2 Bft) S-SO 157 13,6 C 26,5 C
18.08.2012 19:21 26,4 C 45 % 1020,8 hPa 0,0 l/m 6,5 km/h (2 Bft) S-SO 157 13,5 C 26,4 C
18.08.2012 19:26 26,3 C 46 % 1021,0 hPa 0,0 l/m 4,3 km/h (1 Bft) SO 135 13,7 C 26,3 C
18.08.2012 19:31 26,4 C 46 % 1020,9 hPa 0,0 l/m 4,0 km/h (1 Bft) O-SO 112 13,8 C 26,4 C
18.08.2012 19:36 26,4 C 46 % 1021,0 hPa 0,0 l/m 7,6 km/h (2 Bft) S-SO 157 13,8 C 26,4 C
18.08.2012 19:41 26,4 C 46 % 1021,0 hPa 0,0 l/m 4,0 km/h (1 Bft) O 90 13,8 C 26,4 C
18.08.2012 19:46 26,3 C 46 % 1020,8 hPa 0,0 l/m 6,5 km/h (2 Bft) O 90 13,7 C 26,3 C
18.08.2012 19:51 26,2 C 45 % 1020,7 hPa 0,0 l/m 11,9 km/h (2 Bft) S-SO 157 13,3 C 26,2 C
18.08.2012 19:56 26,0 C 46 % 1020,7 hPa 0,0 l/m 8,6 km/h (2 Bft) S-SO 157 13,5 C 26,0 C
18.08.2012 20:01 25,9 C 47 % 1020,7 hPa 0,0 l/m 4,7 km/h (1 Bft) SO 135 13,7 C 25,9 C
18.08.2012 20:06 25,8 C 46 % 1020,7 hPa 0,0 l/m 6,1 km/h (2 Bft) S-SO 157 13,3 C 25,8 C
18.08.2012 20:11 25,5 C 47 % 1020,8 hPa 0,0 l/m 0,0 km/h (0 Bft) SO 135 13,3 C 25,5 C
18.08.2012 20:16 25,3 C 47 % 1020,9 hPa 0,0 l/m 4,3 km/h (1 Bft) S-SO 157 13,2 C 25,3 C
18.08.2012 20:21 25,1 C 48 % 1020,9 hPa 0,0 l/m 5,0 km/h (1 Bft) SO 135 13,3 C 25,1 C
18.08.2012 20:26 24,9 C 48 % 1020,8 hPa 0,0 l/m 4,3 km/h (1 Bft) SO 135 13,1 C 24,9 C
18.08.2012 20:31 24,8 C 49 % 1020,9 hPa 0,0 l/m 4,7 km/h (1 Bft) SO 135 13,3 C 24,8 C
18.08.2012 20:36 24,6 C 49 % 1020,8 hPa 0,0 l/m 3,2 km/h (1 Bft) SO 135 13,2 C 24,6 C
18.08.2012 20:41 24,4 C 50 % 1020,9 hPa 0,0 l/m 2,2 km/h (1 Bft) O-SO 112 13,3 C 24,4 C
18.08.2012 20:46 24,1 C 51 % 1021,0 hPa 0,0 l/m 2,2 km/h (1 Bft) O 90 13,3 C 24,1 C
18.08.2012 20:51 23,9 C 51 % 1021,0 hPa 0,0 l/m 0,0 km/h (0 Bft) O 90 13,1 C 23,9 C
18.08.2012 20:56 23,7 C 52 % 1021,1 hPa 0,0 l/m 3,2 km/h (1 Bft) SO 135 13,2 C 23,7 C
18.08.2012 21:01 23,5 C 53 % 1021,1 hPa 0,0 l/m 4,3 km/h (1 Bft) O-SO 112 13,4 C 23,5 C
18.08.2012 21:06 23,3 C 53 % 1021,3 hPa 0,0 l/m 0,0 km/h (0 Bft) SO 135 13,2 C 23,3 C
18.08.2012 21:11 23,2 C 53 % 1021,2 hPa 0,0 l/m 0,0 km/h (0 Bft) O-SO 112 13,1 C 23,2 C
18.08.2012 21:16 23,0 C 54 % 1021,2 hPa 0,0 l/m 2,9 km/h (1 Bft) SO 135 13,2 C 23,0 C
18.08.2012 21:21 22,9 C 54 % 1021,2 hPa 0,0 l/m 3,6 km/h (1 Bft) SO 135 13,1 C 22,9 C
18.08.2012 21:26 22,7 C 55 % 1021,3 hPa 0,0 l/m 1,1 km/h (1 Bft) O-SO 112 13,2 C 22,7 C
18.08.2012 21:31 22,6 C 55 % 1021,3 hPa 0,0 l/m 4,0 km/h (1 Bft) O-SO 112 13,1 C 22,6 C
18.08.2012 21:36 22,4 C 56 % 1021,0 hPa 0,0 l/m 0,0 km/h (0 Bft) SO 135 13,2 C 22,4 C
18.08.2012 21:41 22,3 C 56 % 1021,1 hPa 0,0 l/m 4,3 km/h (1 Bft) SO 135 13,1 C 22,3 C
18.08.2012 21:46 22,1 C 57 % 1021,2 hPa 0,0 l/m 1,4 km/h (1 Bft) SO 135 13,2 C 22,1 C
18.08.2012 21:51 21,9 C 57 % 1021,1 hPa 0,0 l/m 2,5 km/h (1 Bft) O-SO 112 13,0 C 21,9 C
18.08.2012 21:56 21,9 C 58 % 1021,0 hPa 0,0 l/m 0,0 km/h (0 Bft) O-SO 112 13,3 C 21,9 C
18.08.2012 22:01 21,8 C 58 % 1021,1 hPa 0,0 l/m 0,0 km/h (0 Bft) O-SO 112 13,2 C 21,8 C
18.08.2012 22:06 21,6 C 59 % 1020,9 hPa 0,0 l/m 4,3 km/h (1 Bft) O-SO 112 13,2 C 21,6 C
18.08.2012 22:11 21,4 C 59 % 1021,0 hPa 0,0 l/m 2,9 km/h (1 Bft) O-SO 112 13,0 C 21,4 C
18.08.2012 22:16 21,3 C 59 % 1021,0 hPa 0,0 l/m 6,5 km/h (2 Bft) SO 135 13,0 C 21,3 C
18.08.2012 22:21 21,2 C 60 % 1020,8 hPa 0,0 l/m 7,2 km/h (2 Bft) SO 135 13,1 C 21,2 C
18.08.2012 22:26 21,1 C 60 % 1020,9 hPa 0,0 l/m 4,7 km/h (1 Bft) O-SO 112 13,0 C 21,1 C
18.08.2012 22:31 21,0 C 60 % 1020,8 hPa 0,0 l/m 3,6 km/h (1 Bft) O-NO 67 12,9 C 21,0 C
18.08.2012 22:36 20,9 C 60 % 1021,0 hPa 0,0 l/m 5,0 km/h (1 Bft) SO 135 12,8 C 20,9 C
18.08.2012 22:41 20,9 C 61 % 1020,9 hPa 0,0 l/m 8,6 km/h (2 Bft) S-SO 157 13,1 C 20,9 C
18.08.2012 22:46 20,9 C 61 % 1021,0 hPa 0,0 l/m 4,3 km/h (1 Bft) SO 135 13,1 C 20,9 C
18.08.2012 22:51 20,9 C 61 % 1020,8 hPa 0,0 l/m 7,9 km/h (2 Bft) O-SO 112 13,1 C 20,9 C
18.08.2012 22:56 20,9 C 61 % 1020,9 hPa 0,0 l/m 4,3 km/h (1 Bft) O 90 13,1 C 20,9 C
18.08.2012 23:01 20,9 C 61 % 1020,8 hPa 0,0 l/m 7,6 km/h (2 Bft) SO 135 13,1 C 20,9 C
18.08.2012 23:06 20,9 C 61 % 1020,8 hPa 0,0 l/m 3,2 km/h (1 Bft) O-SO 112 13,1 C 20,9 C
18.08.2012 23:11 20,8 C 61 % 1021,0 hPa 0,0 l/m 1,4 km/h (1 Bft) SO 135 13,0 C 20,8 C
18.08.2012 23:16 20,8 C 61 % 1021,0 hPa 0,0 l/m 2,2 km/h (1 Bft) SO 135 13,0 C 20,8 C
18.08.2012 23:21 20,6 C 61 % 1021,1 hPa 0,0 l/m 0,0 km/h (0 Bft) SO 135 12,8 C 20,6 C
18.08.2012 23:26 20,5 C 62 % 1021,1 hPa 0,0 l/m 2,5 km/h (1 Bft) O-NO 67 13,0 C 20,5 C
18.08.2012 23:31 20,4 C 62 % 1021,2 hPa 0,0 l/m 2,2 km/h (1 Bft) O-SO 112 12,9 C 20,4 C
18.08.2012 23:36 20,3 C 63 % 1021,2 hPa 0,0 l/m 2,5 km/h (1 Bft) O 90 13,0 C 20,3 C
18.08.2012 23:41 20,2 C 63 % 1021,1 hPa 0,0 l/m 4,7 km/h (1 Bft) O-SO 112 12,9 C 20,2 C
18.08.2012 23:46 20,1 C 63 % 1021,1 hPa 0,0 l/m 1,8 km/h (1 Bft) O-SO 112 12,8 C 20,1 C
18.08.2012 23:51 20,1 C 63 % 1021,0 hPa 0,0 l/m 2,5 km/h (1 Bft) O-SO 112 12,8 C 20,1 C
18.08.2012 23:56 20,0 C 64 % 1021,0 hPa 0,0 l/m 3,2 km/h (1 Bft) O-SO 112 13,0 C 20,0 C
_ Min-Zeit 06:11 14:46 19:51 - 00:01 - - 06:11 06:11
Minimum _ 13,9 C 36 % 1020,7 hPa - 0,0 km/h (0 Bft) - - 11,4 C 13,9 C
_ Max-Zeit 15:16 06:36 09:11 00:01 13:21 - - 10:36 15:16
Maximum _ 31,2 C 86 % 1023,1 hPa 0,0 l/m 18,7 km/h
S-SW (3 Bft)
- - 15,2 C 31,2 C
Durchschnitt _ 22,3 C 60 % 1022,0 hPa #0,0 l/m 3,6 km/h (1 Bft) SO - 13,3 C 22,3 C
(c) by David Heller